sensor_id;sensor_type;location;lat;lon;timestamp;P1;durP1;ratioP1;P2;durP2;ratioP2
6513;SDS011;3290;47.716;9.070;2023-11-18T00:02:15;9.10;;;3.73;;
6513;SDS011;3290;47.716;9.070;2023-11-18T00:04:40;7.20;;;3.43;;
6513;SDS011;3290;47.716;9.070;2023-11-18T00:07:06;4.17;;;3.37;;
6513;SDS011;3290;47.716;9.070;2023-11-18T00:09:31;4.23;;;3.10;;
6513;SDS011;3290;47.716;9.070;2023-11-18T00:11:56;4.00;;;3.33;;
6513;SDS011;3290;47.716;9.070;2023-11-18T00:14:22;5.33;;;4.07;;
6513;SDS011;3290;47.716;9.070;2023-11-18T00:16:47;4.63;;;3.47;;
6513;SDS011;3290;47.716;9.070;2023-11-18T00:19:12;5.20;;;4.10;;
6513;SDS011;3290;47.716;9.070;2023-11-18T00:21:38;4.47;;;3.67;;
6513;SDS011;3290;47.716;9.070;2023-11-18T00:24:03;6.87;;;4.17;;
6513;SDS011;3290;47.716;9.070;2023-11-18T00:26:30;5.50;;;3.90;;
6513;SDS011;3290;47.716;9.070;2023-11-18T00:28:55;8.60;;;4.00;;
6513;SDS011;3290;47.716;9.070;2023-11-18T00:31:21;5.37;;;4.10;;
6513;SDS011;3290;47.716;9.070;2023-11-18T00:33:46;4.80;;;4.30;;
6513;SDS011;3290;47.716;9.070;2023-11-18T00:36:11;4.50;;;3.70;;
6513;SDS011;3290;47.716;9.070;2023-11-18T00:38:37;6.57;;;3.97;;
6513;SDS011;3290;47.716;9.070;2023-11-18T00:41:02;9.03;;;3.90;;
6513;SDS011;3290;47.716;9.070;2023-11-18T00:43:29;5.53;;;4.03;;
6513;SDS011;3290;47.716;9.070;2023-11-18T00:45:56;7.20;;;3.83;;
6513;SDS011;3290;47.716;9.070;2023-11-18T00:48:24;6.93;;;4.50;;
6513;SDS011;3290;47.716;9.070;2023-11-18T00:50:49;4.13;;;3.73;;
6513;SDS011;3290;47.716;9.070;2023-11-18T00:53:14;7.10;;;4.40;;
6513;SDS011;3290;47.716;9.070;2023-11-18T00:55:40;5.67;;;4.30;;
6513;SDS011;3290;47.716;9.070;2023-11-18T00:58:06;5.17;;;4.40;;
6513;SDS011;3290;47.716;9.070;2023-11-18T01:00:31;6.87;;;4.80;;
6513;SDS011;3290;47.716;9.070;2023-11-18T01:02:57;6.40;;;4.30;;
6513;SDS011;3290;47.716;9.070;2023-11-18T01:05:22;7.13;;;4.80;;
6513;SDS011;3290;47.716;9.070;2023-11-18T01:07:47;6.00;;;4.30;;
6513;SDS011;3290;47.716;9.070;2023-11-18T01:10:13;6.93;;;5.00;;
6513;SDS011;3290;47.716;9.070;2023-11-18T01:12:39;6.97;;;4.47;;
6513;SDS011;3290;47.716;9.070;2023-11-18T01:15:05;7.80;;;4.70;;
6513;SDS011;3290;47.716;9.070;2023-11-18T01:17:32;9.73;;;5.57;;
6513;SDS011;3290;47.716;9.070;2023-11-18T01:19:57;7.40;;;5.30;;
6513;SDS011;3290;47.716;9.070;2023-11-18T01:22:23;7.90;;;5.47;;
6513;SDS011;3290;47.716;9.070;2023-11-18T01:24:49;6.60;;;5.23;;
6513;SDS011;3290;47.716;9.070;2023-11-18T01:27:16;8.33;;;5.50;;
6513;SDS011;3290;47.716;9.070;2023-11-18T01:29:44;7.10;;;5.43;;
6513;SDS011;3290;47.716;9.070;2023-11-18T01:32:09;10.57;;;5.70;;
6513;SDS011;3290;47.716;9.070;2023-11-18T01:34:35;9.90;;;5.90;;
6513;SDS011;3290;47.716;9.070;2023-11-18T01:37:02;9.10;;;5.13;;
6513;SDS011;3290;47.716;9.070;2023-11-18T01:39:29;8.13;;;5.60;;
6513;SDS011;3290;47.716;9.070;2023-11-18T01:41:56;9.57;;;6.30;;
6513;SDS011;3290;47.716;9.070;2023-11-18T01:44:24;8.10;;;6.03;;
6513;SDS011;3290;47.716;9.070;2023-11-18T01:46:53;11.03;;;6.70;;
6513;SDS011;3290;47.716;9.070;2023-11-18T01:49:19;10.53;;;6.63;;
6513;SDS011;3290;47.716;9.070;2023-11-18T01:51:45;8.33;;;5.97;;
6513;SDS011;3290;47.716;9.070;2023-11-18T01:54:11;9.60;;;6.07;;
6513;SDS011;3290;47.716;9.070;2023-11-18T01:56:50;13.23;;;6.30;;
6513;SDS011;3290;47.716;9.070;2023-11-18T01:59:17;7.13;;;6.10;;
6513;SDS011;3290;47.716;9.070;2023-11-18T02:01:50;10.93;;;6.73;;
6513;SDS011;3290;47.716;9.070;2023-11-18T02:04:18;12.20;;;6.00;;
6513;SDS011;3290;47.716;9.070;2023-11-18T02:06:44;7.73;;;6.53;;
6513;SDS011;3290;47.716;9.070;2023-11-18T02:09:12;9.13;;;6.37;;
6513;SDS011;3290;47.716;9.070;2023-11-18T02:11:40;12.00;;;6.73;;
6513;SDS011;3290;47.716;9.070;2023-11-18T02:14:13;14.57;;;6.90;;
6513;SDS011;3290;47.716;9.070;2023-11-18T02:16:41;11.10;;;6.67;;
6513;SDS011;3290;47.716;9.070;2023-11-18T02:19:09;10.70;;;6.87;;
6513;SDS011;3290;47.716;9.070;2023-11-18T02:21:44;11.93;;;7.57;;
6513;SDS011;3290;47.716;9.070;2023-11-18T02:24:10;11.03;;;7.03;;
6513;SDS011;3290;47.716;9.070;2023-11-18T02:26:36;11.33;;;7.57;;
6513;SDS011;3290;47.716;9.070;2023-11-18T02:29:01;12.03;;;7.60;;
6513;SDS011;3290;47.716;9.070;2023-11-18T02:31:27;10.07;;;7.10;;
6513;SDS011;3290;47.716;9.070;2023-11-18T02:34:02;9.80;;;7.47;;
6513;SDS011;3290;47.716;9.070;2023-11-18T02:36:39;8.90;;;6.77;;
6513;SDS011;3290;47.716;9.070;2023-11-18T02:39:11;10.80;;;6.77;;
6513;SDS011;3290;47.716;9.070;2023-11-18T02:41:42;15.47;;;8.33;;
6513;SDS011;3290;47.716;9.070;2023-11-18T02:44:12;16.03;;;7.50;;
6513;SDS011;3290;47.716;9.070;2023-11-18T02:46:42;14.47;;;8.50;;
6513;SDS011;3290;47.716;9.070;2023-11-18T02:49:09;12.53;;;7.60;;
6513;SDS011;3290;47.716;9.070;2023-11-18T02:51:35;15.27;;;9.10;;
6513;SDS011;3290;47.716;9.070;2023-11-18T02:54:07;12.57;;;7.80;;
6513;SDS011;3290;47.716;9.070;2023-11-18T02:56:35;16.27;;;8.67;;
6513;SDS011;3290;47.716;9.070;2023-11-18T02:59:03;9.80;;;7.57;;
6513;SDS011;3290;47.716;9.070;2023-11-18T03:01:30;12.13;;;7.60;;
6513;SDS011;3290;47.716;9.070;2023-11-18T03:03:57;12.10;;;8.03;;
6513;SDS011;3290;47.716;9.070;2023-11-18T03:06:23;12.77;;;7.77;;
6513;SDS011;3290;47.716;9.070;2023-11-18T03:08:48;10.47;;;8.00;;
6513;SDS011;3290;47.716;9.070;2023-11-18T03:11:14;14.30;;;9.20;;
6513;SDS011;3290;47.716;9.070;2023-11-18T03:13:39;10.77;;;7.83;;
6513;SDS011;3290;47.716;9.070;2023-11-18T03:16:08;17.83;;;9.67;;
6513;SDS011;3290;47.716;9.070;2023-11-18T03:18:37;10.97;;;7.83;;
6513;SDS011;3290;47.716;9.070;2023-11-18T03:21:04;12.37;;;8.50;;
6513;SDS011;3290;47.716;9.070;2023-11-18T03:23:31;14.27;;;8.33;;
6513;SDS011;3290;47.716;9.070;2023-11-18T03:25:57;13.10;;;8.20;;
6513;SDS011;3290;47.716;9.070;2023-11-18T03:28:23;14.50;;;8.97;;
6513;SDS011;3290;47.716;9.070;2023-11-18T03:30:48;14.33;;;8.80;;
6513;SDS011;3290;47.716;9.070;2023-11-18T03:33:14;14.63;;;9.20;;
6513;SDS011;3290;47.716;9.070;2023-11-18T03:35:39;16.17;;;9.67;;
6513;SDS011;3290;47.716;9.070;2023-11-18T03:38:05;13.10;;;8.83;;
6513;SDS011;3290;47.716;9.070;2023-11-18T03:40:30;14.70;;;8.87;;
6513;SDS011;3290;47.716;9.070;2023-11-18T03:42:55;11.60;;;8.53;;
6513;SDS011;3290;47.716;9.070;2023-11-18T03:45:23;15.43;;;8.50;;
6513;SDS011;3290;47.716;9.070;2023-11-18T03:47:49;13.23;;;8.60;;
6513;SDS011;3290;47.716;9.070;2023-11-18T03:50:15;15.50;;;8.37;;
6513;SDS011;3290;47.716;9.070;2023-11-18T03:52:41;13.10;;;8.67;;
6513;SDS011;3290;47.716;9.070;2023-11-18T03:55:07;9.93;;;7.40;;
6513;SDS011;3290;47.716;9.070;2023-11-18T03:57:33;11.10;;;7.83;;
6513;SDS011;3290;47.716;9.070;2023-11-18T03:59:59;10.37;;;7.17;;
6513;SDS011;3290;47.716;9.070;2023-11-18T04:02:24;10.60;;;7.70;;
6513;SDS011;3290;47.716;9.070;2023-11-18T04:04:50;9.83;;;6.50;;
6513;SDS011;3290;47.716;9.070;2023-11-18T04:07:16;19.40;;;8.00;;
6513;SDS011;3290;47.716;9.070;2023-11-18T04:09:42;12.13;;;7.80;;
6513;SDS011;3290;47.716;9.070;2023-11-18T04:12:08;11.37;;;7.70;;
6513;SDS011;3290;47.716;9.070;2023-11-18T04:14:35;12.97;;;7.80;;
6513;SDS011;3290;47.716;9.070;2023-11-18T04:17:01;11.27;;;7.67;;
6513;SDS011;3290;47.716;9.070;2023-11-18T04:19:27;15.23;;;8.80;;
6513;SDS011;3290;47.716;9.070;2023-11-18T04:21:52;9.77;;;7.30;;
6513;SDS011;3290;47.716;9.070;2023-11-18T04:24:17;11.13;;;7.97;;
6513;SDS011;3290;47.716;9.070;2023-11-18T04:26:43;10.37;;;7.53;;
6513;SDS011;3290;47.716;9.070;2023-11-18T04:29:08;9.43;;;6.70;;
6513;SDS011;3290;47.716;9.070;2023-11-18T04:31:34;10.47;;;7.90;;
6513;SDS011;3290;47.716;9.070;2023-11-18T04:34:01;11.17;;;7.90;;
6513;SDS011;3290;47.716;9.070;2023-11-18T04:36:26;11.93;;;7.67;;
6513;SDS011;3290;47.716;9.070;2023-11-18T04:38:52;8.00;;;6.40;;
6513;SDS011;3290;47.716;9.070;2023-11-18T04:41:18;13.17;;;6.70;;
6513;SDS011;3290;47.716;9.070;2023-11-18T04:43:43;9.87;;;6.50;;
6513;SDS011;3290;47.716;9.070;2023-11-18T04:46:08;10.90;;;6.90;;
6513;SDS011;3290;47.716;9.070;2023-11-18T04:48:34;11.93;;;7.20;;
6513;SDS011;3290;47.716;9.070;2023-11-18T04:51:00;13.10;;;7.53;;
6513;SDS011;3290;47.716;9.070;2023-11-18T04:53:25;12.50;;;7.63;;
6513;SDS011;3290;47.716;9.070;2023-11-18T04:55:51;18.93;;;7.10;;
6513;SDS011;3290;47.716;9.070;2023-11-18T04:58:16;11.23;;;6.97;;
6513;SDS011;3290;47.716;9.070;2023-11-18T05:00:42;13.20;;;8.37;;
6513;SDS011;3290;47.716;9.070;2023-11-18T05:03:08;15.73;;;7.07;;
6513;SDS011;3290;47.716;9.070;2023-11-18T05:05:38;8.73;;;6.30;;
6513;SDS011;3290;47.716;9.070;2023-11-18T05:08:04;12.80;;;7.53;;
6513;SDS011;3290;47.716;9.070;2023-11-18T05:10:31;13.27;;;7.33;;
6513;SDS011;3290;47.716;9.070;2023-11-18T05:13:01;10.93;;;7.37;;
6513;SDS011;3290;47.716;9.070;2023-11-18T05:15:27;11.67;;;6.87;;
6513;SDS011;3290;47.716;9.070;2023-11-18T05:17:55;11.00;;;7.10;;
6513;SDS011;3290;47.716;9.070;2023-11-18T05:20:20;13.10;;;7.07;;
6513;SDS011;3290;47.716;9.070;2023-11-18T05:22:46;17.77;;;6.80;;
6513;SDS011;3290;47.716;9.070;2023-11-18T05:25:12;11.90;;;6.43;;
6513;SDS011;3290;47.716;9.070;2023-11-18T05:27:38;12.73;;;6.17;;
6513;SDS011;3290;47.716;9.070;2023-11-18T05:30:08;14.10;;;6.87;;
6513;SDS011;3290;47.716;9.070;2023-11-18T05:32:34;11.33;;;6.93;;
6513;SDS011;3290;47.716;9.070;2023-11-18T05:35:00;11.43;;;6.17;;
6513;SDS011;3290;47.716;9.070;2023-11-18T05:37:25;12.70;;;6.70;;
6513;SDS011;3290;47.716;9.070;2023-11-18T05:39:53;9.23;;;6.30;;
6513;SDS011;3290;47.716;9.070;2023-11-18T05:42:24;11.50;;;5.93;;
6513;SDS011;3290;47.716;9.070;2023-11-18T05:44:53;10.07;;;6.00;;
6513;SDS011;3290;47.716;9.070;2023-11-18T05:47:24;17.40;;;6.40;;
6513;SDS011;3290;47.716;9.070;2023-11-18T05:49:51;9.30;;;6.70;;
6513;SDS011;3290;47.716;9.070;2023-11-18T05:52:17;8.63;;;5.93;;
6513;SDS011;3290;47.716;9.070;2023-11-18T05:54:42;12.07;;;7.17;;
6513;SDS011;3290;47.716;9.070;2023-11-18T05:57:07;11.90;;;7.40;;
6513;SDS011;3290;47.716;9.070;2023-11-18T05:59:33;9.83;;;5.83;;
6513;SDS011;3290;47.716;9.070;2023-11-18T06:01:58;9.17;;;6.10;;
6513;SDS011;3290;47.716;9.070;2023-11-18T06:04:24;9.17;;;6.33;;
6513;SDS011;3290;47.716;9.070;2023-11-18T06:06:50;9.90;;;5.93;;
6513;SDS011;3290;47.716;9.070;2023-11-18T06:09:16;11.97;;;7.33;;
6513;SDS011;3290;47.716;9.070;2023-11-18T06:11:46;10.17;;;6.33;;
6513;SDS011;3290;47.716;9.070;2023-11-18T06:14:14;10.30;;;6.13;;
6513;SDS011;3290;47.716;9.070;2023-11-18T06:16:41;10.47;;;6.13;;
6513;SDS011;3290;47.716;9.070;2023-11-18T06:19:07;10.67;;;6.07;;
6513;SDS011;3290;47.716;9.070;2023-11-18T06:21:33;16.77;;;7.00;;
6513;SDS011;3290;47.716;9.070;2023-11-18T06:23:59;16.90;;;6.90;;
6513;SDS011;3290;47.716;9.070;2023-11-18T06:26:25;13.10;;;8.47;;
6513;SDS011;3290;47.716;9.070;2023-11-18T06:28:51;10.20;;;7.13;;
6513;SDS011;3290;47.716;9.070;2023-11-18T06:31:18;13.73;;;7.27;;
6513;SDS011;3290;47.716;9.070;2023-11-18T06:33:45;9.87;;;6.57;;
6513;SDS011;3290;47.716;9.070;2023-11-18T06:38:44;16.60;;;12.07;;
6513;SDS011;3290;47.716;9.070;2023-11-18T06:41:10;17.60;;;11.37;;
6513;SDS011;3290;47.716;9.070;2023-11-18T06:43:41;15.30;;;9.90;;
6513;SDS011;3290;47.716;9.070;2023-11-18T06:46:19;18.90;;;9.07;;
6513;SDS011;3290;47.716;9.070;2023-11-18T06:48:47;11.60;;;8.00;;
6513;SDS011;3290;47.716;9.070;2023-11-18T06:51:14;14.27;;;9.07;;
6513;SDS011;3290;47.716;9.070;2023-11-18T06:53:41;13.63;;;8.50;;
6513;SDS011;3290;47.716;9.070;2023-11-18T06:56:06;12.70;;;8.07;;
6513;SDS011;3290;47.716;9.070;2023-11-18T06:58:32;15.40;;;8.23;;
6513;SDS011;3290;47.716;9.070;2023-11-18T07:00:57;14.03;;;8.40;;
6513;SDS011;3290;47.716;9.070;2023-11-18T07:03:23;12.67;;;7.73;;
6513;SDS011;3290;47.716;9.070;2023-11-18T07:05:48;16.50;;;7.47;;
6513;SDS011;3290;47.716;9.070;2023-11-18T07:08:14;12.40;;;7.20;;
6513;SDS011;3290;47.716;9.070;2023-11-18T07:10:40;14.27;;;9.33;;
6513;SDS011;3290;47.716;9.070;2023-11-18T07:13:06;17.33;;;8.33;;
6513;SDS011;3290;47.716;9.070;2023-11-18T07:15:33;10.60;;;7.60;;
6513;SDS011;3290;47.716;9.070;2023-11-18T07:18:00;15.00;;;8.10;;
6513;SDS011;3290;47.716;9.070;2023-11-18T07:20:26;13.63;;;7.83;;
6513;SDS011;3290;47.716;9.070;2023-11-18T07:22:52;13.57;;;7.87;;
6513;SDS011;3290;47.716;9.070;2023-11-18T07:25:17;12.13;;;7.10;;
6513;SDS011;3290;47.716;9.070;2023-11-18T07:27:43;11.90;;;7.33;;
6513;SDS011;3290;47.716;9.070;2023-11-18T07:30:08;11.93;;;7.27;;
6513;SDS011;3290;47.716;9.070;2023-11-18T07:32:36;17.40;;;8.60;;
6513;SDS011;3290;47.716;9.070;2023-11-18T07:35:01;13.27;;;7.77;;
6513;SDS011;3290;47.716;9.070;2023-11-18T07:37:27;16.07;;;9.77;;
6513;SDS011;3290;47.716;9.070;2023-11-18T07:39:52;24.70;;;16.33;;
6513;SDS011;3290;47.716;9.070;2023-11-18T07:42:20;15.90;;;9.60;;
6513;SDS011;3290;47.716;9.070;2023-11-18T07:44:45;11.93;;;8.40;;
6513;SDS011;3290;47.716;9.070;2023-11-18T07:47:12;14.40;;;7.70;;
6513;SDS011;3290;47.716;9.070;2023-11-18T07:49:39;15.43;;;8.50;;
6513;SDS011;3290;47.716;9.070;2023-11-18T07:52:05;10.57;;;7.77;;
6513;SDS011;3290;47.716;9.070;2023-11-18T07:54:31;11.30;;;7.50;;
6513;SDS011;3290;47.716;9.070;2023-11-18T07:56:56;11.00;;;7.50;;
6513;SDS011;3290;47.716;9.070;2023-11-18T07:59:22;16.40;;;8.10;;
6513;SDS011;3290;47.716;9.070;2023-11-18T08:01:48;14.93;;;8.97;;
6513;SDS011;3290;47.716;9.070;2023-11-18T08:04:15;11.33;;;7.90;;
6513;SDS011;3290;47.716;9.070;2023-11-18T08:06:40;12.20;;;6.93;;
6513;SDS011;3290;47.716;9.070;2023-11-18T08:09:08;11.20;;;7.10;;
6513;SDS011;3290;47.716;9.070;2023-11-18T08:11:36;9.03;;;6.93;;
6513;SDS011;3290;47.716;9.070;2023-11-18T08:14:02;11.50;;;6.87;;
6513;SDS011;3290;47.716;9.070;2023-11-18T08:16:27;11.47;;;7.07;;
6513;SDS011;3290;47.716;9.070;2023-11-18T08:18:54;9.63;;;6.77;;
6513;SDS011;3290;47.716;9.070;2023-11-18T08:21:20;16.93;;;8.20;;
6513;SDS011;3290;47.716;9.070;2023-11-18T08:23:47;12.63;;;8.00;;
6513;SDS011;3290;47.716;9.070;2023-11-18T08:26:12;14.87;;;7.33;;
6513;SDS011;3290;47.716;9.070;2023-11-18T08:28:38;10.43;;;6.53;;
6513;SDS011;3290;47.716;9.070;2023-11-18T08:31:03;14.43;;;7.07;;
6513;SDS011;3290;47.716;9.070;2023-11-18T08:33:31;8.93;;;7.10;;
6513;SDS011;3290;47.716;9.070;2023-11-18T08:35:56;19.10;;;10.73;;
6513;SDS011;3290;47.716;9.070;2023-11-18T08:38:22;14.47;;;9.50;;
6513;SDS011;3290;47.716;9.070;2023-11-18T08:40:47;14.57;;;7.40;;
6513;SDS011;3290;47.716;9.070;2023-11-18T08:43:13;17.23;;;8.37;;
6513;SDS011;3290;47.716;9.070;2023-11-18T08:45:41;22.47;;;9.60;;
6513;SDS011;3290;47.716;9.070;2023-11-18T08:48:06;12.70;;;7.37;;
6513;SDS011;3290;47.716;9.070;2023-11-18T08:50:33;11.73;;;7.80;;
6513;SDS011;3290;47.716;9.070;2023-11-18T08:53:00;12.10;;;6.37;;
6513;SDS011;3290;47.716;9.070;2023-11-18T08:55:29;8.60;;;6.00;;
6513;SDS011;3290;47.716;9.070;2023-11-18T08:58:08;11.80;;;6.67;;
6513;SDS011;3290;47.716;9.070;2023-11-18T09:00:53;13.07;;;7.20;;
6513;SDS011;3290;47.716;9.070;2023-11-18T09:03:21;9.50;;;6.30;;
6513;SDS011;3290;47.716;9.070;2023-11-18T09:06:02;9.40;;;6.37;;
6513;SDS011;3290;47.716;9.070;2023-11-18T09:08:30;10.20;;;5.80;;
6513;SDS011;3290;47.716;9.070;2023-11-18T09:11:00;11.10;;;6.10;;
6513;SDS011;3290;47.716;9.070;2023-11-18T09:13:30;7.47;;;5.40;;
6513;SDS011;3290;47.716;9.070;2023-11-18T09:15:59;8.23;;;5.40;;
6513;SDS011;3290;47.716;9.070;2023-11-18T09:18:26;6.63;;;5.30;;
6513;SDS011;3290;47.716;9.070;2023-11-18T09:20:55;8.87;;;5.53;;
6513;SDS011;3290;47.716;9.070;2023-11-18T09:23:24;10.33;;;6.03;;
6513;SDS011;3290;47.716;9.070;2023-11-18T09:25:50;7.80;;;5.13;;
6513;SDS011;3290;47.716;9.070;2023-11-18T09:28:18;5.50;;;5.00;;
6513;SDS011;3290;47.716;9.070;2023-11-18T09:30:48;8.00;;;4.63;;
6513;SDS011;3290;47.716;9.070;2023-11-18T09:33:21;8.47;;;5.43;;
6513;SDS011;3290;47.716;9.070;2023-11-18T09:35:53;11.40;;;6.40;;
6513;SDS011;3290;47.716;9.070;2023-11-18T09:38:23;8.73;;;5.30;;
6513;SDS011;3290;47.716;9.070;2023-11-18T09:40:50;6.90;;;5.33;;
6513;SDS011;3290;47.716;9.070;2023-11-18T09:43:17;7.40;;;5.00;;
6513;SDS011;3290;47.716;9.070;2023-11-18T09:45:44;7.83;;;5.70;;
6513;SDS011;3290;47.716;9.070;2023-11-18T09:48:13;8.27;;;4.77;;
6513;SDS011;3290;47.716;9.070;2023-11-18T09:50:43;5.50;;;4.30;;
6513;SDS011;3290;47.716;9.070;2023-11-18T09:53:12;7.43;;;4.70;;
6513;SDS011;3290;47.716;9.070;2023-11-18T09:55:49;7.53;;;5.63;;
6513;SDS011;3290;47.716;9.070;2023-11-18T09:58:20;8.53;;;5.27;;
6513;SDS011;3290;47.716;9.070;2023-11-18T10:00:49;11.17;;;4.03;;
6513;SDS011;3290;47.716;9.070;2023-11-18T10:03:22;7.17;;;3.73;;
6513;SDS011;3290;47.716;9.070;2023-11-18T10:05:47;4.70;;;3.80;;
6513;SDS011;3290;47.716;9.070;2023-11-18T10:08:15;4.10;;;3.57;;
6513;SDS011;3290;47.716;9.070;2023-11-18T10:10:41;6.53;;;4.53;;
6513;SDS011;3290;47.716;9.070;2023-11-18T10:13:10;5.77;;;4.70;;
6513;SDS011;3290;47.716;9.070;2023-11-18T10:15:46;6.30;;;4.20;;
6513;SDS011;3290;47.716;9.070;2023-11-18T10:18:17;5.03;;;3.70;;
6513;SDS011;3290;47.716;9.070;2023-11-18T10:20:48;5.13;;;3.90;;
6513;SDS011;3290;47.716;9.070;2023-11-18T10:23:19;4.73;;;3.77;;
6513;SDS011;3290;47.716;9.070;2023-11-18T10:25:49;7.23;;;4.50;;
6513;SDS011;3290;47.716;9.070;2023-11-18T10:28:20;5.30;;;3.67;;
6513;SDS011;3290;47.716;9.070;2023-11-18T10:30:55;9.67;;;5.57;;
6513;SDS011;3290;47.716;9.070;2023-11-18T10:33:45;9.87;;;5.23;;
6513;SDS011;3290;47.716;9.070;2023-11-18T10:36:21;6.17;;;4.67;;
6513;SDS011;3290;47.716;9.070;2023-11-18T10:38:48;7.80;;;4.30;;
6513;SDS011;3290;47.716;9.070;2023-11-18T10:41:15;7.00;;;4.57;;
6513;SDS011;3290;47.716;9.070;2023-11-18T10:43:43;8.17;;;4.30;;
6513;SDS011;3290;47.716;9.070;2023-11-18T10:46:13;4.70;;;4.00;;
6513;SDS011;3290;47.716;9.070;2023-11-18T10:51:15;11.80;;;8.00;;
6513;SDS011;3290;47.716;9.070;2023-11-18T10:53:48;17.90;;;10.50;;
6513;SDS011;3290;47.716;9.070;2023-11-18T10:56:23;7.17;;;5.57;;
6513;SDS011;3290;47.716;9.070;2023-11-18T10:58:52;5.37;;;4.83;;
6513;SDS011;3290;47.716;9.070;2023-11-18T11:01:28;5.60;;;4.77;;
6513;SDS011;3290;47.716;9.070;2023-11-18T11:03:58;7.60;;;4.80;;
6513;SDS011;3290;47.716;9.070;2023-11-18T11:06:24;5.00;;;4.20;;
6513;SDS011;3290;47.716;9.070;2023-11-18T11:08:51;9.87;;;5.70;;
6513;SDS011;3290;47.716;9.070;2023-11-18T11:11:18;5.50;;;3.97;;
6513;SDS011;3290;47.716;9.070;2023-11-18T11:13:46;13.13;;;9.10;;
6513;SDS011;3290;47.716;9.070;2023-11-18T11:16:16;7.07;;;4.03;;
6513;SDS011;3290;47.716;9.070;2023-11-18T11:18:46;7.00;;;3.87;;
6513;SDS011;3290;47.716;9.070;2023-11-18T11:21:18;5.27;;;4.13;;
6513;SDS011;3290;47.716;9.070;2023-11-18T11:24:06;6.37;;;4.33;;
6513;SDS011;3290;47.716;9.070;2023-11-18T11:26:48;6.10;;;4.37;;
6513;SDS011;3290;47.716;9.070;2023-11-18T11:29:35;8.00;;;4.20;;
6513;SDS011;3290;47.716;9.070;2023-11-18T11:34:40;6.77;;;5.20;;
6513;SDS011;3290;47.716;9.070;2023-11-18T11:37:25;18.03;;;8.93;;
6513;SDS011;3290;47.716;9.070;2023-11-18T11:39:55;8.00;;;5.73;;
6513;SDS011;3290;47.716;9.070;2023-11-18T11:42:23;4.30;;;3.90;;
6513;SDS011;3290;47.716;9.070;2023-11-18T11:44:49;5.17;;;4.23;;
6513;SDS011;3290;47.716;9.070;2023-11-18T11:47:18;20.40;;;11.83;;
6513;SDS011;3290;47.716;9.070;2023-11-18T11:49:57;13.20;;;7.10;;
6513;SDS011;3290;47.716;9.070;2023-11-18T11:52:47;4.33;;;3.90;;
6513;SDS011;3290;47.716;9.070;2023-11-18T11:55:23;6.47;;;4.93;;
6513;SDS011;3290;47.716;9.070;2023-11-18T11:58:03;5.27;;;3.90;;
6513;SDS011;3290;47.716;9.070;2023-11-18T12:00:31;5.57;;;4.30;;
6513;SDS011;3290;47.716;9.070;2023-11-18T12:03:02;6.83;;;4.80;;
6513;SDS011;3290;47.716;9.070;2023-11-18T12:05:33;5.47;;;4.83;;
6513;SDS011;3290;47.716;9.070;2023-11-18T12:07:59;8.03;;;4.73;;
6513;SDS011;3290;47.716;9.070;2023-11-18T12:10:31;6.93;;;4.10;;
6513;SDS011;3290;47.716;9.070;2023-11-18T12:13:14;8.57;;;4.10;;
6513;SDS011;3290;47.716;9.070;2023-11-18T12:16:02;5.40;;;4.70;;
6513;SDS011;3290;47.716;9.070;2023-11-18T12:18:30;10.40;;;4.80;;
6513;SDS011;3290;47.716;9.070;2023-11-18T12:21:01;5.20;;;3.50;;
6513;SDS011;3290;47.716;9.070;2023-11-18T12:23:28;5.00;;;4.40;;
6513;SDS011;3290;47.716;9.070;2023-11-18T12:25:54;10.47;;;5.00;;
6513;SDS011;3290;47.716;9.070;2023-11-18T12:28:29;7.10;;;5.10;;
6513;SDS011;3290;47.716;9.070;2023-11-18T12:30:59;5.00;;;3.67;;
6513;SDS011;3290;47.716;9.070;2023-11-18T12:42:06;5.57;;;4.10;;
6513;SDS011;3290;47.716;9.070;2023-11-18T12:45:12;8.57;;;4.53;;
6513;SDS011;3290;47.716;9.070;2023-11-18T12:47:42;7.43;;;4.10;;
6513;SDS011;3290;47.716;9.070;2023-11-18T12:50:09;8.67;;;5.33;;
6513;SDS011;3290;47.716;9.070;2023-11-18T12:52:42;7.47;;;5.33;;
6513;SDS011;3290;47.716;9.070;2023-11-18T12:55:09;6.43;;;4.80;;
6513;SDS011;3290;47.716;9.070;2023-11-18T12:57:45;6.57;;;4.60;;
6513;SDS011;3290;47.716;9.070;2023-11-18T13:00:12;7.33;;;5.20;;
6513;SDS011;3290;47.716;9.070;2023-11-18T13:02:43;8.10;;;5.50;;
6513;SDS011;3290;47.716;9.070;2023-11-18T13:05:09;7.97;;;5.90;;
6513;SDS011;3290;47.716;9.070;2023-11-18T13:07:35;7.47;;;5.33;;
6513;SDS011;3290;47.716;9.070;2023-11-18T13:10:01;9.57;;;6.00;;
6513;SDS011;3290;47.716;9.070;2023-11-18T13:12:29;9.20;;;5.63;;
6513;SDS011;3290;47.716;9.070;2023-11-18T13:14:55;6.13;;;4.53;;
6513;SDS011;3290;47.716;9.070;2023-11-18T13:17:21;10.23;;;6.03;;
6513;SDS011;3290;47.716;9.070;2023-11-18T13:19:47;10.47;;;4.63;;
6513;SDS011;3290;47.716;9.070;2023-11-18T13:22:16;9.17;;;6.23;;
6513;SDS011;3290;47.716;9.070;2023-11-18T13:24:44;7.83;;;5.30;;
6513;SDS011;3290;47.716;9.070;2023-11-18T13:27:09;10.47;;;6.30;;
6513;SDS011;3290;47.716;9.070;2023-11-18T13:29:36;7.87;;;5.30;;
6513;SDS011;3290;47.716;9.070;2023-11-18T13:32:06;9.03;;;5.97;;
6513;SDS011;3290;47.716;9.070;2023-11-18T13:34:32;7.70;;;5.80;;
6513;SDS011;3290;47.716;9.070;2023-11-18T13:37:03;7.50;;;5.47;;
6513;SDS011;3290;47.716;9.070;2023-11-18T13:39:31;8.73;;;5.60;;
6513;SDS011;3290;47.716;9.070;2023-11-18T13:41:56;7.77;;;5.93;;
6513;SDS011;3290;47.716;9.070;2023-11-18T13:44:38;9.00;;;6.80;;
6513;SDS011;3290;47.716;9.070;2023-11-18T13:47:06;10.87;;;7.00;;
6513;SDS011;3290;47.716;9.070;2023-11-18T13:49:32;9.50;;;6.50;;
6513;SDS011;3290;47.716;9.070;2023-11-18T13:52:02;8.73;;;6.23;;
6513;SDS011;3290;47.716;9.070;2023-11-18T13:54:28;6.90;;;6.10;;
6513;SDS011;3290;47.716;9.070;2023-11-18T13:56:54;8.83;;;6.83;;
6513;SDS011;3290;47.716;9.070;2023-11-18T13:59:40;12.13;;;8.20;;
6513;SDS011;3290;47.716;9.070;2023-11-18T14:02:08;9.60;;;6.20;;
6513;SDS011;3290;47.716;9.070;2023-11-18T14:04:34;19.73;;;5.97;;
6513;SDS011;3290;47.716;9.070;2023-11-18T14:07:00;9.20;;;6.03;;
6513;SDS011;3290;47.716;9.070;2023-11-18T14:09:29;9.03;;;5.53;;
6513;SDS011;3290;47.716;9.070;2023-11-18T14:11:55;6.10;;;5.50;;
6513;SDS011;3290;47.716;9.070;2023-11-18T14:14:21;8.10;;;6.00;;
6513;SDS011;3290;47.716;9.070;2023-11-18T14:16:50;7.90;;;5.80;;
6513;SDS011;3290;47.716;9.070;2023-11-18T14:19:19;9.53;;;5.83;;
6513;SDS011;3290;47.716;9.070;2023-11-18T14:21:44;10.17;;;7.97;;
6513;SDS011;3290;47.716;9.070;2023-11-18T14:24:10;12.90;;;5.90;;
6513;SDS011;3290;47.716;9.070;2023-11-18T14:26:37;16.77;;;10.87;;
6513;SDS011;3290;47.716;9.070;2023-11-18T14:29:04;17.30;;;9.07;;
6513;SDS011;3290;47.716;9.070;2023-11-18T14:31:31;8.87;;;6.20;;
6513;SDS011;3290;47.716;9.070;2023-11-18T14:33:56;8.97;;;6.93;;
6513;SDS011;3290;47.716;9.070;2023-11-18T14:36:24;8.63;;;6.70;;
6513;SDS011;3290;47.716;9.070;2023-11-18T14:38:50;12.03;;;7.20;;
6513;SDS011;3290;47.716;9.070;2023-11-18T14:41:16;15.57;;;8.97;;
6513;SDS011;3290;47.716;9.070;2023-11-18T14:43:42;8.87;;;6.30;;
6513;SDS011;3290;47.716;9.070;2023-11-18T14:46:07;15.30;;;7.40;;
6513;SDS011;3290;47.716;9.070;2023-11-18T14:48:33;18.60;;;6.43;;
6513;SDS011;3290;47.716;9.070;2023-11-18T14:50:59;12.40;;;6.17;;
6513;SDS011;3290;47.716;9.070;2023-11-18T14:53:25;7.93;;;5.90;;
6513;SDS011;3290;47.716;9.070;2023-11-18T14:55:50;10.93;;;7.10;;
6513;SDS011;3290;47.716;9.070;2023-11-18T14:58:16;16.20;;;7.60;;
6513;SDS011;3290;47.716;9.070;2023-11-18T15:00:42;11.97;;;7.70;;
6513;SDS011;3290;47.716;9.070;2023-11-18T15:03:08;10.60;;;7.57;;
6513;SDS011;3290;47.716;9.070;2023-11-18T15:05:33;10.20;;;6.70;;
6513;SDS011;3290;47.716;9.070;2023-11-18T15:07:59;10.73;;;7.20;;
6513;SDS011;3290;47.716;9.070;2023-11-18T15:10:26;22.20;;;11.33;;
6513;SDS011;3290;47.716;9.070;2023-11-18T15:12:53;20.77;;;11.60;;
6513;SDS011;3290;47.716;9.070;2023-11-18T15:15:23;12.00;;;6.50;;
6513;SDS011;3290;47.716;9.070;2023-11-18T15:17:56;12.10;;;8.40;;
6513;SDS011;3290;47.716;9.070;2023-11-18T15:20:29;13.67;;;8.67;;
6513;SDS011;3290;47.716;9.070;2023-11-18T15:22:54;12.90;;;7.53;;
6513;SDS011;3290;47.716;9.070;2023-11-18T15:25:20;15.90;;;8.50;;
6513;SDS011;3290;47.716;9.070;2023-11-18T15:27:46;17.17;;;10.90;;
6513;SDS011;3290;47.716;9.070;2023-11-18T15:30:13;30.17;;;16.30;;